Time;durP1;ratioP1;P1;durP2;ratioP2;P2;SDS_P1;SDS_P2;PMS_P1;PMS_P2;Temp;Humidity;BMP_temperature;BMP_pressure;BME280_temperature;BME280_humidity;BME280_pressure;Samples;Min_cycle;Max_cycle;Signal;HPM_P1;HPM_P2
2022/04/11 00:01:12;;;;;;;;;26.20;26.20;;;;;;;;5249911;28;8766;-71
2022/04/11 00:03:43;;;;;;;;;29.40;27.40;;;;;;;;5233369;28;8920;-70
2022/04/11 00:06:14;;;;;;;;;27.80;27.00;;;;;;;;5266508;28;8802;-70
2022/04/11 00:08:46;;;;;;;;;23.40;22.80;;;;;;;;5250014;28;8771;-71
2022/04/11 00:11:17;;;;;;;;;22.20;21.80;;;;;;;;5233258;28;8767;-71
2022/04/11 00:13:50;;;;;;;;;23.80;22.80;;;;;;;;5216097;28;8802;-70
2022/04/11 00:16:21;;;;;;;;;25.80;25.80;;;;;;;;5249607;28;8766;-71
2022/04/11 00:18:52;;;;;;;;;29.80;27.60;;;;;;;;5249380;28;8817;-71
2022/04/11 00:21:23;;;;;;;;;26.60;26.60;;;;;;;;5232784;28;8783;-70
2022/04/11 00:23:55;;;;;;;;;25.20;25.00;;;;;;;;5249562;28;8945;-72
2022/04/11 00:26:44;;;;;;;;;18.00;18.00;;;;;;;;5249582;28;8809;-71
2022/04/11 00:29:16;;;;;;;;;21.60;21.00;;;;;;;;5250262;28;8754;-71
2022/04/11 00:31:47;;;;;;;;;21.80;21.80;;;;;;;;5249229;28;8779;-71
2022/04/11 00:34:19;;;;;;;;;21.40;21.20;;;;;;;;5232246;28;8825;-71
2022/04/11 00:36:50;;;;;;;;;21.40;20.80;;;;;;;;5266949;28;8794;-72
2022/04/11 00:39:21;;;;;;;;;17.60;17.60;;;;;;;;5249628;28;8781;-72
2022/04/11 00:41:53;;;;;;;;;25.40;25.40;;;;;;;;5231971;28;8771;-72
2022/04/11 00:44:24;;;;;;;;;23.40;23.40;;;;;;;;5232820;28;9493;-71
2022/04/11 00:46:57;;;;;;;;;19.60;19.60;;;;;;;;5231957;28;8806;-72
2022/04/11 00:49:29;;;;;;;;;21.00;20.20;;;;;;;;5249212;28;8782;-72
2022/04/11 00:52:02;;;;;;;;;18.80;18.20;;;;;;;;5232950;28;8771;-71
2022/04/11 00:54:33;;;;;;;;;15.20;14.80;;;;;;;;5232581;28;8779;-72
2022/04/11 00:57:05;;;;;;;;;19.40;18.80;;;;;;;;5248655;28;8945;-71
2022/04/11 00:59:37;;;;;;;;;20.40;18.00;;;;;;;;5248798;28;8783;-71
2022/04/11 01:02:09;;;;;;;;;26.00;23.40;;;;;;;;5215656;28;8782;-70
2022/04/11 01:04:42;;;;;;;;;28.80;26.20;;;;;;;;5249180;28;8790;-70
2022/04/11 01:07:14;;;;;;;;;32.00;30.80;;;;;;;;5232653;28;8787;-71
2022/04/11 01:09:46;;;;;;;;;30.40;30.20;;;;;;;;5244596;28;8877;-69
2022/04/11 01:12:18;;;;;;;;;32.20;32.00;;;;;;;;5261735;28;8811;-69
2022/04/11 01:14:49;;;;;;;;;20.80;20.80;;;;;;;;5257480;28;8795;-70
2022/04/11 01:17:31;;;;;;;;;26.20;26.20;;;;;;;;5244496;28;8858;-71
2022/04/11 01:20:06;;;;;;;;;30.40;27.20;;;;;;;;5212651;28;8777;-71
2022/04/11 01:22:38;;;;;;;;;28.60;28.00;;;;;;;;5232208;28;8768;-71
2022/04/11 01:25:27;;;;;;;;;28.80;28.20;;;;;;;;5235032;28;8825;-71
2022/04/11 01:28:00;;;;;;;;;21.00;20.60;;;;;;;;5249740;28;8796;-71
2022/04/11 01:30:33;;;;;;;;;25.80;25.80;;;;;;;;5237502;28;8871;-71
2022/04/11 01:33:15;;;;;;;;;20.60;20.60;;;;;;;;5270568;28;8810;-71
2022/04/11 01:36:04;;;;;;;;;30.40;29.80;;;;;;;;5252766;28;8771;-71
2022/04/11 01:38:36;;;;;;;;;34.40;32.60;;;;;;;;5235986;28;8794;-71
2022/04/11 01:41:08;;;;;;;;;30.40;29.80;;;;;;;;5269488;28;8914;-71
2022/04/11 01:43:40;;;;;;;;;27.20;26.80;;;;;;;;5235333;28;8787;-72
2022/04/11 01:46:11;;;;;;;;;27.60;27.40;;;;;;;;5234260;28;8786;-72
2022/04/11 01:48:54;;;;;;;;;26.40;24.40;;;;;;;;5237257;28;8806;-71
2022/04/11 01:51:26;;;;;;;;;25.80;25.80;;;;;;;;5235807;28;8789;-68
2022/04/11 01:53:59;;;;;;;;;21.60;20.80;;;;;;;;5256129;28;9550;-68
2022/04/11 01:56:30;;;;;;;;;21.40;21.00;;;;;;;;5270154;28;8771;-68
2022/04/11 01:59:02;;;;;;;;;23.40;22.80;;;;;;;;5235456;28;8830;-68
2022/04/11 02:01:34;;;;;;;;;18.60;18.60;;;;;;;;5270210;28;9533;-68
2022/04/11 02:04:06;;;;;;;;;20.40;19.60;;;;;;;;5218839;28;8787;-68
2022/04/11 02:06:38;;;;;;;;;16.60;16.00;;;;;;;;5269641;28;8794;-68
2022/04/11 02:09:10;;;;;;;;;8.00;8.00;;;;;;;;5270721;28;8782;-68
2022/04/11 02:11:42;;;;;;;;;18.20;17.60;;;;;;;;5234408;28;8791;-72
2022/04/11 02:14:15;;;;;;;;;12.60;11.80;;;;;;;;5234094;28;8821;-69
2022/04/11 02:16:46;;;;;;;;;18.00;18.00;;;;;;;;5218407;28;8809;-69
2022/04/11 02:19:17;;;;;;;;;28.00;27.40;;;;;;;;5235195;28;8766;-69
2022/04/11 02:21:48;;;;;;;;;18.40;18.40;;;;;;;;5228576;28;8802;-71
2022/04/11 02:24:19;;;;;;;;;21.40;20.40;;;;;;;;5251377;28;8905;-70
2022/04/11 02:26:51;;;;;;;;;33.20;31.60;;;;;;;;5251282;28;8794;-70
2022/04/11 02:29:22;;;;;;;;;28.50;28.50;;;;;;;;5217696;28;8783;-70
2022/04/11 02:31:53;;;;;;;;;27.80;24.80;;;;;;;;5251001;28;11483;-70
2022/04/11 02:34:25;;;;;;;;;27.40;26.40;;;;;;;;5269163;28;8775;-70
2022/04/11 02:36:57;;;;;;;;;26.00;24.80;;;;;;;;5234656;28;8829;-70
2022/04/11 02:39:28;;;;;;;;;22.80;22.80;;;;;;;;5269238;28;8778;-70
2022/04/11 02:41:59;;;;;;;;;15.20;15.00;;;;;;;;5267143;28;8905;-71
2022/04/11 02:44:31;;;;;;;;;22.80;21.00;;;;;;;;5250892;28;8805;-69
2022/04/11 02:47:02;;;;;;;;;29.80;29.40;;;;;;;;5267783;28;8775;-70
2022/04/11 02:49:34;;;;;;;;;19.00;19.00;;;;;;;;5250506;28;8809;-69
2022/04/11 02:52:23;;;;;;;;;19.80;19.80;;;;;;;;5268944;28;8774;-70
2022/04/11 02:54:55;;;;;;;;;20.20;19.60;;;;;;;;5234231;28;8768;-71
2022/04/11 02:57:45;;;;;;;;;22.60;21.20;;;;;;;;5269035;28;8899;-71
2022/04/11 03:00:17;;;;;;;;;27.00;25.00;;;;;;;;5233925;28;8778;-70
2022/04/11 03:02:58;;;;;;;;;18.20;18.20;;;;;;;;5250804;28;8863;-71
2022/04/11 03:05:34;;;;;;;;;14.80;14.40;;;;;;;;5234202;28;8775;-71
2022/04/11 03:08:08;;;;;;;;;25.40;24.80;;;;;;;;5250655;28;8790;-70
2022/04/11 03:10:40;;;;;;;;;18.80;18.40;;;;;;;;5249783;28;8806;-69
2022/04/11 03:13:12;;;;;;;;;15.20;14.80;;;;;;;;5266132;28;8809;-70
2022/04/11 03:15:43;;;;;;;;;20.20;19.80;;;;;;;;5250542;28;8794;-69
2022/04/11 03:18:14;;;;;;;;;19.25;19.25;;;;;;;;5249927;28;8798;-70
2022/04/11 03:20:47;;;;;;;;;25.80;25.80;;;;;;;;5250355;28;11459;-69
2022/04/11 03:23:19;;;;;;;;;22.80;21.80;;;;;;;;5233594;28;8794;-70
2022/04/11 03:25:55;;;;;;;;;11.80;11.80;;;;;;;;5250796;28;8806;-69
2022/04/11 03:28:31;;;;;;;;;19.80;19.20;;;;;;;;5245380;28;8870;-70
2022/04/11 03:31:02;;;;;;;;;13.00;13.00;;;;;;;;5213170;28;8816;-70
2022/04/11 03:33:34;;;;;;;;;16.80;16.80;;;;;;;;5213184;28;8773;-70
2022/04/11 03:36:06;;;;;;;;;18.00;18.00;;;;;;;;5246104;28;8797;-72
2022/04/11 03:38:37;;;;;;;;;19.00;19.00;;;;;;;;5246005;28;8824;-71
2022/04/11 03:41:10;;;;;;;;;11.40;10.80;;;;;;;;5246821;28;8785;-71
2022/04/11 03:43:42;;;;;;;;;15.60;15.60;;;;;;;;5246576;28;8784;-72
2022/04/11 03:46:13;;;;;;;;;15.20;15.20;;;;;;;;5229171;28;8796;-72
2022/04/11 03:48:45;;;;;;;;;10.80;9.80;;;;;;;;5246841;28;9005;-69
2022/04/11 03:51:17;;;;;;;;;20.00;18.80;;;;;;;;5233487;28;8771;-71
2022/04/11 03:53:48;;;;;;;;;15.00;15.00;;;;;;;;5233085;28;8795;-70
2022/04/11 03:56:20;;;;;;;;;21.40;21.20;;;;;;;;5232971;28;8763;-71
2022/04/11 03:58:52;;;;;;;;;17.60;16.20;;;;;;;;5249392;28;8821;-71
2022/04/11 04:01:25;;;;;;;;;13.00;12.40;;;;;;;;5250053;28;8746;-70
2022/04/11 04:03:56;;;;;;;;;10.60;10.60;;;;;;;;5211619;28;8777;-70
2022/04/11 04:06:28;;;;;;;;;10.00;9.80;;;;;;;;5212263;28;8772;-71
2022/04/11 04:08:59;;;;;;;;;15.20;15.20;;;;;;;;5245388;28;8990;-71
2022/04/11 04:11:37;;;;;;;;;12.00;12.00;;;;;;;;5246483;28;8773;-71
2022/04/11 04:14:19;;;;;;;;;13.80;13.80;;;;;;;;5213815;28;8792;-71
2022/04/11 04:16:55;;;;;;;;;19.40;19.40;;;;;;;;5212052;28;8811;-70
2022/04/11 04:19:45;;;;;;;;;14.80;13.80;;;;;;;;5225028;28;9551;-71
2022/04/11 04:22:21;;;;;;;;;12.80;12.80;;;;;;;;5250429;28;8785;-71
2022/04/11 04:24:53;;;;;;;;;16.20;15.40;;;;;;;;5244873;28;8800;-71
2022/04/11 04:27:27;;;;;;;;;11.40;11.40;;;;;;;;5211999;28;8776;-72
2022/04/11 04:29:59;;;;;;;;;13.60;13.60;;;;;;;;5211962;28;8869;-71
2022/04/11 04:32:31;;;;;;;;;14.00;14.00;;;;;;;;5228311;28;8849;-72
2022/04/11 04:35:05;;;;;;;;;12.20;12.00;;;;;;;;5244731;28;8777;-72
2022/04/11 04:37:37;;;;;;;;;9.00;8.20;;;;;;;;5196703;28;9695;-71
2022/04/11 04:40:09;;;;;;;;;10.00;9.40;;;;;;;;5245201;28;8795;-71
2022/04/11 04:42:41;;;;;;;;;11.00;11.00;;;;;;;;5203616;28;8787;-69
2022/04/11 04:45:16;;;;;;;;;16.40;14.20;;;;;;;;5228078;28;8926;-69
2022/04/11 04:48:07;;;;;;;;;9.50;9.50;;;;;;;;5214555;28;8818;-69
2022/04/11 04:50:40;;;;;;;;;13.00;13.00;;;;;;;;5228192;28;8780;-69
2022/04/11 04:53:16;;;;;;;;;11.75;11.50;;;;;;;;5212680;28;8816;-70
2022/04/11 04:55:49;;;;;;;;;16.40;16.40;;;;;;;;5230646;28;8777;-69
2022/04/11 04:58:21;;;;;;;;;13.60;13.60;;;;;;;;5244219;28;8847;-69
2022/04/11 05:00:53;;;;;;;;;17.80;17.60;;;;;;;;5217614;28;8785;-70
2022/04/11 05:03:28;;;;;;;;;10.40;10.40;;;;;;;;5220551;28;8799;-70
2022/04/11 05:06:00;;;;;;;;;8.20;8.20;;;;;;;;5252734;28;8843;-72
2022/04/11 05:08:32;;;;;;;;;10.60;10.60;;;;;;;;5253602;28;8879;-71
2022/04/11 05:11:05;;;;;;;;;12.80;12.80;;;;;;;;5236653;28;9055;-71
2022/04/11 05:13:40;;;;;;;;;14.40;14.40;;;;;;;;5253166;28;8787;-71
2022/04/11 05:16:11;;;;;;;;;14.40;13.80;;;;;;;;5229438;28;8801;-70
2022/04/11 05:18:43;;;;;;;;;14.20;14.20;;;;;;;;5251954;28;8989;-70
2022/04/11 05:21:15;;;;;;;;;10.00;10.00;;;;;;;;5243035;28;8840;-68
2022/04/11 05:23:48;;;;;;;;;16.80;16.60;;;;;;;;5253097;28;8767;-69
2022/04/11 05:26:20;;;;;;;;;16.00;16.00;;;;;;;;5245513;28;9550;-68
2022/04/11 05:28:51;;;;;;;;;16.00;16.00;;;;;;;;5213900;28;8873;-69
2022/04/11 05:31:25;;;;;;;;;11.20;11.20;;;;;;;;5213388;28;8853;-68
2022/04/11 05:33:59;;;;;;;;;11.00;11.00;;;;;;;;5214115;28;8930;-69
2022/04/11 05:36:30;;;;;;;;;5.80;5.00;;;;;;;;5214685;28;8833;-69
2022/04/11 05:39:02;;;;;;;;;14.80;14.80;;;;;;;;5213750;28;8843;-70
2022/04/11 05:41:51;;;;;;;;;13.60;13.20;;;;;;;;5267403;28;8802;-69
2022/04/11 05:44:23;;;;;;;;;10.20;10.20;;;;;;;;5234123;28;8782;-69
2022/04/11 05:46:54;;;;;;;;;18.60;17.80;;;;;;;;5250424;28;8794;-69
2022/04/11 05:49:37;;;;;;;;;14.00;14.00;;;;;;;;5267193;28;8801;-69
2022/04/11 05:52:09;;;;;;;;;17.00;15.60;;;;;;;;5250503;28;8794;-68
2022/04/11 05:54:40;;;;;;;;;14.00;14.00;;;;;;;;5250775;28;8770;-69
2022/04/11 05:57:13;;;;;;;;;10.80;10.80;;;;;;;;5249286;28;8904;-69
2022/04/11 05:59:46;;;;;;;;;7.20;7.20;;;;;;;;5267329;28;8847;-70
2022/04/11 06:02:17;;;;;;;;;11.80;11.80;;;;;;;;5231878;28;8790;-70
2022/04/11 06:04:48;;;;;;;;;11.20;10.80;;;;;;;;5266155;28;8795;-69
2022/04/11 06:07:21;;;;;;;;;22.20;20.40;;;;;;;;5215114;28;8883;-70
2022/04/11 06:09:54;;;;;;;;;17.40;17.40;;;;;;;;5216082;28;8824;-69
2022/04/11 06:12:26;;;;;;;;;13.40;13.00;;;;;;;;5249340;28;8778;-69
2022/04/11 06:14:58;;;;;;;;;11.00;11.00;;;;;;;;5249191;28;8786;-69
2022/04/11 06:17:30;;;;;;;;;8.25;8.25;;;;;;;;5211292;28;8942;-68
2022/04/11 06:20:02;;;;;;;;;7.00;7.00;;;;;;;;5261038;28;8794;-69
2022/04/11 06:22:40;;;;;;;;;6.00;6.00;;;;;;;;5232422;28;9954;-69
2022/04/11 06:25:11;;;;;;;;;12.80;12.80;;;;;;;;5230512;28;8791;-66
2022/04/11 06:27:42;;;;;;;;;14.00;13.80;;;;;;;;5231411;28;8786;-66
2022/04/11 06:30:13;;;;;;;;;10.80;10.00;;;;;;;;5249296;28;8782;-67
2022/04/11 06:32:47;;;;;;;;;13.60;13.20;;;;;;;;5217239;28;8803;-69
2022/04/11 06:35:20;;;;;;;;;15.80;15.40;;;;;;;;5250021;28;8787;-69
2022/04/11 06:37:51;;;;;;;;;7.00;7.00;;;;;;;;5250176;28;8822;-69
2022/04/11 06:40:41;;;;;;;;;13.60;13.60;;;;;;;;5238686;28;8798;-68
2022/04/11 06:43:12;;;;;;;;;10.50;10.50;;;;;;;;5232709;28;8859;-68
2022/04/11 06:46:00;;;;;;;;;12.40;11.60;;;;;;;;5237302;28;8772;-68
2022/04/11 06:48:31;;;;;;;;;11.00;11.00;;;;;;;;5249781;28;8813;-68
2022/04/11 06:51:20;;;;;;;;;8.50;8.25;;;;;;;;5249833;28;11443;-68
2022/04/11 06:53:51;;;;;;;;;9.75;9.00;;;;;;;;5233092;28;9573;-68
2022/04/11 06:56:22;;;;;;;;;7.25;7.25;;;;;;;;5250408;28;8924;-68
2022/04/11 06:58:54;;;;;;;;;8.00;8.00;;;;;;;;5193514;28;1602195;-68
2022/04/11 07:01:25;;;;;;;;;10.00;10.00;;;;;;;;5250794;28;8902;-68
2022/04/11 07:03:57;;;;;;;;;16.40;16.40;;;;;;;;5234254;28;8825;-68
2022/04/11 07:06:28;;;;;;;;;13.00;13.00;;;;;;;;5266961;28;8799;-68
2022/04/11 07:08:59;;;;;;;;;17.40;17.40;;;;;;;;5229355;28;8843;-68
2022/04/11 07:11:33;;;;;;;;;16.75;16.75;;;;;;;;5247877;28;8750;-68
2022/04/11 07:14:05;;;;;;;;;45.80;39.00;;;;;;;;5231104;28;10047;-69
2022/04/11 07:16:36;;;;;;;;;18.60;17.80;;;;;;;;5268056;28;8802;-69
2022/04/11 07:19:07;;;;;;;;;16.40;15.60;;;;;;;;5232126;28;8827;-68
2022/04/11 07:21:38;;;;;;;;;12.00;11.00;;;;;;;;5216321;28;8814;-68
2022/04/11 07:24:09;;;;;;;;;5.50;5.50;;;;;;;;5267963;28;8969;-68
2022/04/11 07:26:42;;;;;;;;;8.25;8.25;;;;;;;;5249624;28;8775;-68
2022/04/11 07:29:14;;;;;;;;;7.75;7.75;;;;;;;;5249796;28;8774;-69
2022/04/11 07:31:45;;;;;;;;;8.75;8.75;;;;;;;;5249191;28;8876;-69
2022/04/11 07:34:15;;;;;;;;;8.75;8.75;;;;;;;;5216298;28;8818;-69
2022/04/11 07:36:47;;;;;;;;;27.80;27.20;;;;;;;;5232136;28;8806;-69
2022/04/11 07:39:19;;;;;;;;;16.00;15.75;;;;;;;;5232871;28;8838;-69
2022/04/11 07:41:53;;;;;;;;;21.40;21.00;;;;;;;;5249339;28;8799;-69
2022/04/11 07:44:24;;;;;;;;;14.00;14.00;;;;;;;;5213191;28;8775;-69
2022/04/11 07:46:55;;;;;;;;;15.60;14.80;;;;;;;;5249082;28;8798;-68
2022/04/11 07:49:26;;;;;;;;;18.80;17.00;;;;;;;;5249513;28;8818;-68
2022/04/11 07:51:57;;;;;;;;;19.60;19.20;;;;;;;;5249161;28;8794;-69
2022/04/11 07:54:28;;;;;;;;;14.00;14.00;;;;;;;;5216131;28;8802;-68
2022/04/11 07:56:59;;;;;;;;;16.50;16.50;;;;;;;;5232719;28;10557;-69
2022/04/11 07:59:48;;;;;;;;;24.80;23.80;;;;;;;;5248811;28;9575;-68
2022/04/11 08:02:26;;;;;;;;;11.00;11.00;;;;;;;;5249253;28;8795;-68
2022/04/11 08:05:00;;;;;;;;;16.25;15.50;;;;;;;;5230770;28;8962;-68
2022/04/11 08:07:32;;;;;;;;;8.00;8.00;;;;;;;;5215698;28;8933;-69
2022/04/11 08:10:04;;;;;;;;;9.50;9.50;;;;;;;;5249038;28;8783;-69
2022/04/11 08:12:35;;;;;;;;;15.25;14.75;;;;;;;;5248989;28;8941;-69
2022/04/11 08:15:06;;;;;;;;;10.50;10.50;;;;;;;;5266928;28;8941;-69
2022/04/11 08:17:37;;;;;;;;;10.75;10.75;;;;;;;;5232953;28;10063;-69
2022/04/11 08:20:27;;;;;;;;;9.25;9.25;;;;;;;;5244233;28;8930;-69
2022/04/11 08:23:16;;;;;;;;;9.00;9.00;;;;;;;;5248749;28;8861;-69
2022/04/11 08:25:47;;;;;;;;;9.00;9.00;;;;;;;;5248706;28;8819;-69
2022/04/11 08:28:20;;;;;;;;;8.50;8.50;;;;;;;;5228093;28;8801;-68
2022/04/11 08:30:51;;;;;;;;;10.00;10.00;;;;;;;;5226139;28;8895;-69
2022/04/11 08:33:21;;;;;;;;;8.00;8.00;;;;;;;;5235501;28;8798;-72
2022/04/11 08:35:52;;;;;;;;;12.00;12.00;;;;;;;;5248455;28;8815;-72
2022/04/11 08:38:23;;;;;;;;;10.00;10.00;;;;;;;;5231660;28;9251;-72
2022/04/11 08:40:54;;;;;;;;;11.00;11.00;;;;;;;;5231943;28;8879;-72
2022/04/11 08:43:26;;;;;;;;;9.00;9.00;;;;;;;;5231840;28;11393;-72
2022/04/11 08:45:58;;;;;;;;;12.50;12.50;;;;;;;;5266656;28;8798;-72
2022/04/11 08:48:29;;;;;;;;;11.50;11.00;;;;;;;;5244633;28;8823;-72
2022/04/11 08:51:00;;;;;;;;;11.00;10.75;;;;;;;;5264243;28;8771;-72
2022/04/11 08:53:31;;;;;;;;;11.67;11.67;;;;;;;;5248654;28;8898;-72
2022/04/11 08:56:02;;;;;;;;;13.75;13.50;;;;;;;;5231820;28;8778;-71
2022/04/11 08:58:53;;;;;;;;;7.25;7.25;;;;;;;;5248132;28;8819;-71
2022/04/11 09:01:24;;;;;;;;;9.50;9.50;;;;;;;;5248562;28;8795;-71
2022/04/11 09:03:55;;;;;;;;;10.00;9.00;;;;;;;;5265375;28;8783;-72
2022/04/11 09:06:30;;;;;;;;;4.50;4.50;;;;;;;;5229791;28;8797;-72
2022/04/11 09:09:02;;;;;;;;;9.75;9.75;;;;;;;;5248420;28;8920;-72
2022/04/11 09:11:37;;;;;;;;;9.75;9.75;;;;;;;;5210708;28;8785;-72
2022/04/11 09:14:27;;;;;;;;;8.50;8.50;;;;;;;;5232692;28;8847;-72
2022/04/11 09:16:57;;;;;;;;;5.00;5.00;;;;;;;;5215225;28;8778;-72
2022/04/11 09:19:29;;;;;;;;;9.50;9.50;;;;;;;;5227675;28;8831;-72
2022/04/11 09:22:00;;;;;;;;;11.25;11.25;;;;;;;;5244775;28;8780;-72
2022/04/11 09:24:31;;;;;;;;;13.00;13.00;;;;;;;;5227897;28;8830;-72
2022/04/11 09:27:04;;;;;;;;;13.25;13.25;;;;;;;;5230011;28;8785;-70
2022/04/11 09:29:42;;;;;;;;;9.50;9.50;;;;;;;;5251292;28;8783;-72
2022/04/11 09:32:31;;;;;;;;;9.25;9.00;;;;;;;;5252633;28;8913;-72
2022/04/11 09:35:02;;;;;;;;;10.00;9.00;;;;;;;;5235316;28;9667;-72
2022/04/11 09:37:34;;;;;;;;;7.25;7.25;;;;;;;;5253562;28;8796;-70
2022/04/11 09:40:05;;;;;;;;;7.75;7.75;;;;;;;;5237273;28;8756;-71
2022/04/11 09:42:36;;;;;;;;;9.25;9.25;;;;;;;;5232238;28;8818;-72
2022/04/11 09:45:16;;;;;;;;;9.67;9.67;;;;;;;;5237768;28;8784;-71
2022/04/11 09:48:00;;;;;;;;;9.75;9.75;;;;;;;;5252357;28;11466;-72
2022/04/11 09:50:31;;;;;;;;;8.00;8.00;;;;;;;;5269246;28;8798;-72
2022/04/11 09:53:06;;;;;;;;;10.25;10.25;;;;;;;;5252062;28;8820;-71
2022/04/11 09:55:38;;;;;;;;;9.00;9.00;;;;;;;;5251868;28;8814;-71
2022/04/11 09:58:08;;;;;;;;;6.50;6.50;;;;;;;;5252583;28;8840;-71
2022/04/11 10:00:41;;;;;;;;;8.00;8.00;;;;;;;;5252148;28;8771;-70
2022/04/11 10:03:12;;;;;;;;;7.50;7.50;;;;;;;;5218820;28;8855;-70
2022/04/11 10:05:43;;;;;;;;;10.00;10.00;;;;;;;;5251915;28;8775;-70
2022/04/11 10:08:14;;;;;;;;;20.33;19.67;;;;;;;;5235630;28;8942;-71
2022/04/11 10:10:45;;;;;;;;;7.00;7.00;;;;;;;;5235350;28;11483;-71
2022/04/11 10:13:16;;;;;;;;;13.00;13.00;;;;;;;;5269727;28;11414;-69
2022/04/11 10:15:48;;;;;;;;;8.67;8.67;;;;;;;;5235204;28;9642;-68
2022/04/11 10:18:23;;;;;;;;;9.00;9.00;;;;;;;;5213317;28;8805;-71
2022/04/11 10:20:59;;;;;;;;;6.25;6.25;;;;;;;;5197928;28;8929;-72
2022/04/11 10:23:32;;;;;;;;;9.25;9.25;;;;;;;;5231681;28;8812;-72
2022/04/11 10:26:12;;;;;;;;;10.75;10.75;;;;;;;;5229907;28;8805;-70
2022/04/11 10:28:45;;;;;;;;;23.25;22.00;;;;;;;;5269311;28;8790;-70
2022/04/11 10:31:16;;;;;;;;;9.00;9.00;;;;;;;;5251659;28;8771;-72
2022/04/11 10:33:47;;;;;;;;;16.00;15.67;;;;;;;;5234699;28;8795;-70
2022/04/11 10:36:37;;;;;;;;;15.75;15.75;;;;;;;;5237313;28;11371;-69
2022/04/11 10:39:28;;;;;;;;;11.50;11.50;;;;;;;;5236997;28;8839;-69
2022/04/11 10:41:59;;;;;;;;;12.25;12.25;;;;;;;;5233783;28;8878;-69
2022/04/11 10:44:35;;;;;;;;;9.00;9.00;;;;;;;;5251064;28;8778;-69
2022/04/11 10:47:09;;;;;;;;;11.00;11.00;;;;;;;;5269201;28;8782;-69
2022/04/11 10:49:48;;;;;;;;;16.00;16.00;;;;;;;;5217768;28;8790;-69
2022/04/11 10:52:36;;;;;;;;;17.25;17.25;;;;;;;;5217036;28;8790;-69
2022/04/11 10:55:06;;;;;;;;;18.25;16.25;;;;;;;;5217912;28;8851;-69
2022/04/11 10:57:42;;;;;;;;;23.00;22.33;;;;;;;;5216978;28;8814;-69
2022/04/11 11:00:13;;;;;;;;;14.75;14.50;;;;;;;;5234115;28;11456;-69
2022/04/11 11:02:52;;;;;;;;;17.75;17.25;;;;;;;;5215152;28;8824;-69
2022/04/11 11:05:26;;;;;;;;;18.00;18.00;;;;;;;;5217707;28;8774;-69
2022/04/11 11:08:17;;;;;;;;;20.25;19.75;;;;;;;;5253295;28;8790;-69
2022/04/11 11:10:49;;;;;;;;;22.50;21.50;;;;;;;;5234168;28;8767;-69
2022/04/11 11:13:39;;;;;;;;;36.20;33.60;;;;;;;;5236484;28;8779;-69
2022/04/11 11:16:14;;;;;;;;;30.80;29.20;;;;;;;;5234217;28;8774;-69
2022/04/11 11:18:48;;;;;;;;;26.40;26.40;;;;;;;;5212465;28;8793;-69
2022/04/11 11:21:41;;;;;;;;;19.25;19.00;;;;;;;;5215613;28;8777;-69
2022/04/11 11:24:12;;;;;;;;;15.25;14.25;;;;;;;;5244428;28;8753;-69
2022/04/11 11:26:46;;;;;;;;;16.00;16.00;;;;;;;;5245935;28;8826;-69
2022/04/11 11:29:43;;;;;;;;;14.00;14.00;;;;;;;;5215523;28;8795;-69
2022/04/11 11:32:14;;;;;;;;;10.50;10.50;;;;;;;;5233258;28;8774;-69
2022/04/11 11:34:45;;;;;;;;;19.00;19.00;;;;;;;;5216909;28;8793;-69
2022/04/11 11:37:34;;;;;;;;;16.00;16.00;;;;;;;;5236015;28;9576;-68
2022/04/11 11:40:06;;;;;;;;;15.00;15.00;;;;;;;;5228925;28;8789;-70
2022/04/11 11:42:38;;;;;;;;;17.50;17.50;;;;;;;;5223142;28;8814;-70
2022/04/11 11:45:09;;;;;;;;;20.50;20.00;;;;;;;;5217010;28;8787;-69
2022/04/11 11:47:39;;;;;;;;;12.33;12.33;;;;;;;;5233121;28;8825;-70
2022/04/11 11:50:12;;;;;;;;;12.00;12.00;;;;;;;;5233305;28;11370;-69
2022/04/11 11:52:45;;;;;;;;;16.25;16.00;;;;;;;;5216687;28;9640;-69
2022/04/11 11:55:36;;;;;;;;;10.00;9.50;;;;;;;;5235656;28;8811;-69
2022/04/11 11:58:33;;;;;;;;;8.25;8.25;;;;;;;;5228295;28;8951;-70
2022/04/11 12:01:04;;;;;;;;;8.50;8.50;;;;;;;;5217967;28;8848;-69
2022/04/11 12:06:43;;;;;;;;;17.25;17.25;;;;;;;;5266441;28;8932;-69
2022/04/11 12:09:14;;;;;;;;;13.33;13.33;;;;;;;;5232818;28;8924;-69
2022/04/11 12:11:45;;;;;;;;;10.33;10.33;;;;;;;;5232755;28;11450;-69
2022/04/11 12:14:16;;;;;;;;;20.25;20.25;;;;;;;;5232717;28;10945;-69
2022/04/11 12:17:02;;;;;;;;;13.67;13.67;;;;;;;;5249257;28;8813;-70
2022/04/11 12:19:34;;;;;;;;;17.00;17.00;;;;;;;;5249503;28;8802;-68
2022/04/11 12:22:13;;;;;;;;;16.75;16.75;;;;;;;;5243586;28;9556;-67
2022/04/11 12:24:43;;;;;;;;;19.50;18.75;;;;;;;;5211949;28;8797;-67
2022/04/11 12:27:20;;;;;;;;;15.00;15.00;;;;;;;;5245286;28;8790;-66
2022/04/11 12:29:51;;;;;;;;;24.40;24.40;;;;;;;;5228644;28;8817;-66
2022/04/11 12:32:22;;;;;;;;;18.33;18.00;;;;;;;;5212224;28;8766;-67
2022/04/11 12:34:54;;;;;;;;;15.67;14.67;;;;;;;;5212065;28;8904;-65
2022/04/11 12:37:25;;;;;;;;;12.50;12.50;;;;;;;;5231591;28;11457;-63
2022/04/11 12:39:57;;;;;;;;;11.00;11.00;;;;;;;;5266713;28;9609;-66
2022/04/11 12:42:28;;;;;;;;;10.75;10.75;;;;;;;;5249143;28;11635;-66
2022/04/11 12:45:02;;;;;;;;;13.50;13.50;;;;;;;;5267236;28;9612;-65
2022/04/11 12:47:53;;;;;;;;;18.80;18.20;;;;;;;;5267041;28;8789;-67
2022/04/11 12:50:43;;;;;;;;;4.75;4.75;;;;;;;;5267074;28;8801;-67
2022/04/11 12:53:14;;;;;;;;;19.25;19.25;;;;;;;;5267081;28;8899;-67
2022/04/11 12:55:45;;;;;;;;;19.25;18.25;;;;;;;;5248958;28;8901;-66
2022/04/11 12:58:21;;;;;;;;;24.00;24.00;;;;;;;;5243622;28;8955;-67
2022/04/11 13:00:56;;;;;;;;;24.80;23.60;;;;;;;;5228146;28;8773;-67
2022/04/11 13:03:27;;;;;;;;;24.40;24.40;;;;;;;;5261976;28;8927;-66
2022/04/11 13:05:59;;;;;;;;;20.40;19.80;;;;;;;;5245941;28;8807;-67
2022/04/11 13:08:30;;;;;;;;;12.75;12.75;;;;;;;;5261508;28;8795;-66
2022/04/11 13:11:00;;;;;;;;;12.67;12.67;;;;;;;;5227960;28;8769;-66
2022/04/11 13:13:32;;;;;;;;;18.00;18.00;;;;;;;;5247056;28;8863;-66
2022/04/11 13:18:53;;;;;;;;;47.00;41.40;;;;;;;;5270295;28;8933;-67
2022/04/11 13:21:42;;;;;;;;;10.25;10.25;;;;;;;;5254685;28;8783;-67
2022/04/11 13:24:13;;;;;;;;;18.67;18.67;;;;;;;;5248806;28;8824;-66
2022/04/11 13:26:44;;;;;;;;;24.50;24.00;;;;;;;;5249570;28;12161;-67
2022/04/11 13:29:16;;;;;;;;;21.25;20.75;;;;;;;;5231708;28;9519;-67
2022/04/11 13:32:06;;;;;;;;;16.75;16.75;;;;;;;;5217560;28;8784;-66
2022/04/11 13:34:38;;;;;;;;;19.00;17.75;;;;;;;;5229991;28;8785;-67
2022/04/11 13:37:27;;;;;;;;;13.00;11.75;;;;;;;;5249481;28;8875;-67
2022/04/11 13:39:58;;;;;;;;;19.67;19.67;;;;;;;;5238217;28;8779;-67
2022/04/11 13:42:29;;;;;;;;;21.33;21.33;;;;;;;;5251680;28;8805;-67
2022/04/11 13:45:00;;;;;;;;;24.00;22.33;;;;;;;;5235818;28;9519;-67
2022/04/11 13:47:30;;;;;;;;;19.33;18.00;;;;;;;;5270481;28;9501;-67
2022/04/11 13:50:01;;;;;;;;;21.00;21.00;;;;;;;;5243471;28;10271;-66
2022/04/11 13:52:33;;;;;;;;;25.50;25.50;;;;;;;;5232511;28;12176;-67
2022/04/11 13:55:05;;;;;;;;;16.67;16.67;;;;;;;;5252242;28;8774;-67
2022/04/11 13:57:36;;;;;;;;;20.75;19.75;;;;;;;;5218258;28;11557;-67
2022/04/11 14:00:25;;;;;;;;;26.80;26.20;;;;;;;;5252108;28;8786;-67
2022/04/11 14:02:56;;;;;;;;;20.67;20.33;;;;;;;;5218336;28;8813;-67
2022/04/11 14:05:27;;;;;;;;;14.67;14.67;;;;;;;;5269667;28;8762;-67
2022/04/11 14:07:58;;;;;;;;;14.33;14.33;;;;;;;;5268923;28;8798;-66
2022/04/11 14:10:29;;;;;;;;;19.50;18.00;;;;;;;;5251754;28;8920;-65
2022/04/11 14:13:00;;;;;;;;;19.67;19.67;;;;;;;;5269275;28;8933;-66
2022/04/11 14:15:30;;;;;;;;;30.75;29.50;;;;;;;;5250790;28;8813;-67
2022/04/11 14:18:01;;;;;;;;;26.25;26.25;;;;;;;;5234570;28;9583;-66
2022/04/11 14:20:32;;;;;;;;;16.33;16.33;;;;;;;;5250560;28;8848;-67
2022/04/11 14:23:03;;;;;;;;;15.00;15.00;;;;;;;;5214251;28;8808;-66
2022/04/11 14:25:34;;;;;;;;;14.00;14.00;;;;;;;;5230266;28;8786;-66
2022/04/11 14:28:07;;;;;;;;;13.67;13.33;;;;;;;;5229981;28;8838;-66
2022/04/11 14:30:39;;;;;;;;;15.25;15.25;;;;;;;;5249276;28;8936;-66
2022/04/11 14:33:28;;;;;;;;;18.00;17.75;;;;;;;;5269243;28;8817;-65
2022/04/11 14:35:59;;;;;;;;;13.00;13.00;;;;;;;;5266087;28;8818;-66
2022/04/11 14:38:30;;;;;;;;;12.67;12.00;;;;;;;;5249116;28;10853;-66
2022/04/11 14:41:19;;;;;;;;;12.50;12.50;;;;;;;;5252103;28;8766;-66
2022/04/11 14:43:50;;;;;;;;;14.75;13.75;;;;;;;;5249004;28;8831;-66
2022/04/11 14:46:21;;;;;;;;;30.00;29.67;;;;;;;;5232623;28;8794;-66
2022/04/11 14:48:52;;;;;;;;;26.00;25.50;;;;;;;;5248613;28;11525;-67
2022/04/11 14:51:23;;;;;;;;;14.67;14.67;;;;;;;;5248803;28;8790;-67
2022/04/11 14:54:13;;;;;;;;;12.00;12.00;;;;;;;;5267024;28;10434;-66
2022/04/11 14:56:43;;;;;;;;;15.33;15.33;;;;;;;;5232457;28;8793;-66
2022/04/11 14:59:15;;;;;;;;;16.00;14.67;;;;;;;;5248209;28;11534;-67
2022/04/11 15:02:04;;;;;;;;;8.50;5.75;;;;;;;;5248971;28;8865;-66
2022/04/11 15:04:35;;;;;;;;;19.75;19.75;;;;;;;;5232169;28;8817;-67
2022/04/11 15:07:06;;;;;;;;;16.67;16.67;;;;;;;;5266641;28;8801;-67
2022/04/11 15:09:37;;;;;;;;;17.00;16.75;;;;;;;;5227632;28;9394;-67
2022/04/11 15:12:08;;;;;;;;;23.33;23.33;;;;;;;;5211303;28;9555;-67
2022/04/11 15:14:41;;;;;;;;;31.40;31.40;;;;;;;;5220367;28;8803;-67
2022/04/11 15:17:12;;;;;;;;;26.25;26.25;;;;;;;;5245364;28;8811;-67
2022/04/11 15:19:43;;;;;;;;;23.20;23.20;;;;;;;;5250983;28;8787;-67